sensor_id;sensor_type;location;lat;lon;timestamp;pressure;altitude;pressure_sealevel;temperature;humidity
37291;BME280;23175;-33.706;151.094;2022-11-15T00:01:44;99071.20;;;17.94;30.19
37291;BME280;23175;-33.706;151.094;2022-11-15T00:04:14;99068.27;;;18.30;30.01
37291;BME280;23175;-33.706;151.094;2022-11-15T00:06:44;99065.41;;;18.31;30.04
37291;BME280;23175;-33.706;151.094;2022-11-15T00:09:14;99058.63;;;17.95;30.66
37291;BME280;23175;-33.706;151.094;2022-11-15T00:11:44;99057.54;;;17.42;30.46
37291;BME280;23175;-33.706;151.094;2022-11-15T00:14:14;99059.11;;;18.40;30.32
37291;BME280;23175;-33.706;151.094;2022-11-15T00:16:44;99057.71;;;20.79;27.72
37291;BME280;23175;-33.706;151.094;2022-11-15T00:19:14;99058.93;;;17.80;30.18
37291;BME280;23175;-33.706;151.094;2022-11-15T00:21:44;99057.82;;;21.65;27.44
37291;BME280;23175;-33.706;151.094;2022-11-15T00:24:15;99053.34;;;18.88;30.62
37291;BME280;23175;-33.706;151.094;2022-11-15T00:26:45;99051.07;;;19.05;28.54
37291;BME280;23175;-33.706;151.094;2022-11-15T00:29:14;99050.21;;;15.62;31.08
37291;BME280;23175;-33.706;151.094;2022-11-15T00:31:45;99053.50;;;18.05;29.82
37291;BME280;23175;-33.706;151.094;2022-11-15T00:34:15;99046.40;;;19.75;26.78
37291;BME280;23175;-33.706;151.094;2022-11-15T00:36:45;99049.11;;;22.01;27.04
37291;BME280;23175;-33.706;151.094;2022-11-15T00:39:15;99047.64;;;21.99;26.14
37291;BME280;23175;-33.706;151.094;2022-11-15T00:41:45;99048.81;;;21.81;26.09
37291;BME280;23175;-33.706;151.094;2022-11-15T00:44:15;99045.56;;;18.08;28.86
37291;BME280;23175;-33.706;151.094;2022-11-15T00:46:45;99045.15;;;18.51;28.72
37291;BME280;23175;-33.706;151.094;2022-11-15T00:49:15;99039.84;;;16.82;29.11
37291;BME280;23175;-33.706;151.094;2022-11-15T00:51:45;99044.00;;;17.56;30.24
37291;BME280;23175;-33.706;151.094;2022-11-15T00:54:15;99037.31;;;19.26;27.91
37291;BME280;23175;-33.706;151.094;2022-11-15T00:56:46;99028.12;;;19.73;27.66
37291;BME280;23175;-33.706;151.094;2022-11-15T00:59:15;99023.18;;;19.73;26.71
37291;BME280;23175;-33.706;151.094;2022-11-15T01:01:46;99019.56;;;20.43;27.41
37291;BME280;23175;-33.706;151.094;2022-11-15T01:04:16;99017.88;;;19.17;27.46
37291;BME280;23175;-33.706;151.094;2022-11-15T01:06:46;99019.90;;;20.01;28.13
37291;BME280;23175;-33.706;151.094;2022-11-15T01:09:16;99016.27;;;17.21;29.78
37291;BME280;23175;-33.706;151.094;2022-11-15T01:11:46;99017.94;;;21.07;26.53
37291;BME280;23175;-33.706;151.094;2022-11-15T01:14:16;99011.63;;;20.51;26.02
37291;BME280;23175;-33.706;151.094;2022-11-15T01:16:46;99010.72;;;19.95;28.18
37291;BME280;23175;-33.706;151.094;2022-11-15T01:19:16;99013.59;;;21.36;27.15
37291;BME280;23175;-33.706;151.094;2022-11-15T01:21:49;99013.06;;;18.37;28.95
37291;BME280;23175;-33.706;151.094;2022-11-15T01:24:20;99007.11;;;18.88;28.52
37291;BME280;23175;-33.706;151.094;2022-11-15T01:26:50;99006.50;;;20.95;27.14
37291;BME280;23175;-33.706;151.094;2022-11-15T01:29:20;99004.78;;;17.11;30.45
37291;BME280;23175;-33.706;151.094;2022-11-15T01:31:52;99002.75;;;21.76;26.69
37291;BME280;23175;-33.706;151.094;2022-11-15T01:34:22;99000.97;;;19.66;28.06
37291;BME280;23175;-33.706;151.094;2022-11-15T01:36:52;98995.87;;;20.29;27.89
37291;BME280;23175;-33.706;151.094;2022-11-15T01:39:22;98995.10;;;21.14;26.19
37291;BME280;23175;-33.706;151.094;2022-11-15T01:41:52;98991.81;;;22.66;25.37
37291;BME280;23175;-33.706;151.094;2022-11-15T01:44:42;98988.01;;;18.80;28.56
37291;BME280;23175;-33.706;151.094;2022-11-15T01:47:17;98982.04;;;21.94;26.05
37291;BME280;23175;-33.706;151.094;2022-11-15T01:49:55;98980.74;;;20.38;27.69
37291;BME280;23175;-33.706;151.094;2022-11-15T01:52:26;98976.26;;;20.38;27.11
37291;BME280;23175;-33.706;151.094;2022-11-15T01:55:03;98972.59;;;23.38;25.20
37291;BME280;23175;-33.706;151.094;2022-11-15T01:57:36;98973.74;;;21.15;27.69
37291;BME280;23175;-33.706;151.094;2022-11-15T02:00:08;98974.62;;;21.09;27.65
37291;BME280;23175;-33.706;151.094;2022-11-15T02:02:38;98969.76;;;19.03;29.02
37291;BME280;23175;-33.706;151.094;2022-11-15T02:05:09;98969.44;;;20.89;28.02
37291;BME280;23175;-33.706;151.094;2022-11-15T02:07:39;98962.86;;;22.40;25.41
37291;BME280;23175;-33.706;151.094;2022-11-15T02:10:13;98957.07;;;18.44;28.95
37291;BME280;23175;-33.706;151.094;2022-11-15T02:12:44;98953.40;;;18.37;30.49
37291;BME280;23175;-33.706;151.094;2022-11-15T02:15:15;98950.06;;;19.17;30.15
37291;BME280;23175;-33.706;151.094;2022-11-15T02:18:03;98943.75;;;18.76;29.70
37291;BME280;23175;-33.706;151.094;2022-11-15T02:20:45;98939.34;;;18.34;30.64
37291;BME280;23175;-33.706;151.094;2022-11-15T02:23:47;98935.13;;;18.12;29.59
37291;BME280;23175;-33.706;151.094;2022-11-15T02:26:42;98939.23;;;21.06;27.63
37291;BME280;23175;-33.706;151.094;2022-11-15T02:29:15;98937.80;;;20.34;27.96
37291;BME280;23175;-33.706;151.094;2022-11-15T02:31:58;98936.61;;;19.80;33.84
37291;BME280;23175;-33.706;151.094;2022-11-15T02:34:39;98931.03;;;19.16;36.04
37291;BME280;23175;-33.706;151.094;2022-11-15T02:37:15;98926.92;;;22.31;33.05
37291;BME280;23175;-33.706;151.094;2022-11-15T02:39:51;98925.60;;;19.20;37.52
37291;BME280;23175;-33.706;151.094;2022-11-15T02:42:28;98919.97;;;19.52;36.65
37291;BME280;23175;-33.706;151.094;2022-11-15T02:45:05;98916.11;;;19.52;38.07
37291;BME280;23175;-33.706;151.094;2022-11-15T02:47:43;98915.89;;;20.80;35.70
37291;BME280;23175;-33.706;151.094;2022-11-15T02:50:16;98917.97;;;17.34;41.01
37291;BME280;23175;-33.706;151.094;2022-11-15T02:52:48;98914.29;;;19.41;38.92
37291;BME280;23175;-33.706;151.094;2022-11-15T02:55:36;98907.89;;;19.79;36.59
37291;BME280;23175;-33.706;151.094;2022-11-15T02:58:26;98906.39;;;20.31;37.54
37291;BME280;23175;-33.706;151.094;2022-11-15T03:01:06;98900.37;;;19.25;38.43
37291;BME280;23175;-33.706;151.094;2022-11-15T03:03:51;98907.20;;;20.97;35.87
37291;BME280;23175;-33.706;151.094;2022-11-15T03:06:31;98912.06;;;20.33;35.99
37291;BME280;23175;-33.706;151.094;2022-11-15T03:09:10;98908.36;;;20.63;36.61
37291;BME280;23175;-33.706;151.094;2022-11-15T03:11:48;98908.20;;;20.29;36.22
37291;BME280;23175;-33.706;151.094;2022-11-15T03:14:24;98904.47;;;18.02;38.48
37291;BME280;23175;-33.706;151.094;2022-11-15T03:17:01;98899.07;;;21.11;36.46
37291;BME280;23175;-33.706;151.094;2022-11-15T03:19:40;98892.24;;;17.85;40.47
37291;BME280;23175;-33.706;151.094;2022-11-15T03:22:15;98890.67;;;20.19;37.80
37291;BME280;23175;-33.706;151.094;2022-11-15T03:24:47;98894.71;;;19.61;38.06
37291;BME280;23175;-33.706;151.094;2022-11-15T03:27:24;98894.12;;;20.44;35.71
37291;BME280;23175;-33.706;151.094;2022-11-15T03:30:00;98879.64;;;18.96;38.75
37291;BME280;23175;-33.706;151.094;2022-11-15T03:32:34;98881.19;;;21.00;36.13
37291;BME280;23175;-33.706;151.094;2022-11-15T03:35:08;98873.49;;;18.89;38.59
37291;BME280;23175;-33.706;151.094;2022-11-15T03:37:44;98870.91;;;17.71;41.92
37291;BME280;23175;-33.706;151.094;2022-11-15T03:40:16;98869.77;;;16.12;42.22
37291;BME280;23175;-33.706;151.094;2022-11-15T03:42:52;98866.30;;;17.81;42.89
37291;BME280;23175;-33.706;151.094;2022-11-15T03:45:28;98870.28;;;16.41;44.01
37291;BME280;23175;-33.706;151.094;2022-11-15T03:48:05;98858.74;;;15.82;45.62
37291;BME280;23175;-33.706;151.094;2022-11-15T03:50:38;98849.29;;;20.03;40.47
37291;BME280;23175;-33.706;151.094;2022-11-15T03:53:09;98848.46;;;20.09;39.44
37291;BME280;23175;-33.706;151.094;2022-11-15T03:55:40;98847.16;;;19.48;39.17
37291;BME280;23175;-33.706;151.094;2022-11-15T03:58:10;98852.04;;;20.58;38.19
37291;BME280;23175;-33.706;151.094;2022-11-15T04:00:41;98854.78;;;20.57;38.26
37291;BME280;23175;-33.706;151.094;2022-11-15T04:03:11;98859.05;;;22.28;36.39
37291;BME280;23175;-33.706;151.094;2022-11-15T04:05:41;98856.23;;;20.88;38.21
37291;BME280;23175;-33.706;151.094;2022-11-15T04:08:11;98853.95;;;22.99;36.73
37291;BME280;23175;-33.706;151.094;2022-11-15T04:10:41;98845.75;;;22.14;38.14
37291;BME280;23175;-33.706;151.094;2022-11-15T04:13:11;98839.19;;;20.12;41.62
37291;BME280;23175;-33.706;151.094;2022-11-15T04:15:47;98834.46;;;19.32;42.52
37291;BME280;23175;-33.706;151.094;2022-11-15T04:18:17;98816.80;;;20.49;39.36
37291;BME280;23175;-33.706;151.094;2022-11-15T04:20:47;98812.47;;;20.57;41.26
37291;BME280;23175;-33.706;151.094;2022-11-15T04:23:18;98809.48;;;19.15;41.58
37291;BME280;23175;-33.706;151.094;2022-11-15T04:25:51;98804.83;;;20.75;41.02
37291;BME280;23175;-33.706;151.094;2022-11-15T04:28:23;98804.28;;;19.16;42.58
37291;BME280;23175;-33.706;151.094;2022-11-15T04:30:53;98799.55;;;17.43;44.07
37291;BME280;23175;-33.706;151.094;2022-11-15T04:33:24;98794.18;;;15.69;43.96
37291;BME280;23175;-33.706;151.094;2022-11-15T04:35:54;98782.38;;;19.05;40.38
37291;BME280;23175;-33.706;151.094;2022-11-15T04:38:24;98777.09;;;18.53;42.30
37291;BME280;23175;-33.706;151.094;2022-11-15T04:40:54;98775.45;;;21.26;39.96
37291;BME280;23175;-33.706;151.094;2022-11-15T04:43:24;98769.69;;;18.47;40.47
37291;BME280;23175;-33.706;151.094;2022-11-15T04:45:56;98771.07;;;17.89;44.33
37291;BME280;23175;-33.706;151.094;2022-11-15T04:48:26;98769.61;;;20.74;39.64
37291;BME280;23175;-33.706;151.094;2022-11-15T04:50:56;98769.19;;;19.84;40.79
37291;BME280;23175;-33.706;151.094;2022-11-15T04:53:26;98775.51;;;19.70;37.53
37291;BME280;23175;-33.706;151.094;2022-11-15T04:55:55;98773.36;;;20.14;38.19
37291;BME280;23175;-33.706;151.094;2022-11-15T04:58:26;98768.73;;;19.79;37.44
37291;BME280;23175;-33.706;151.094;2022-11-15T05:00:56;98773.47;;;19.70;38.44
37291;BME280;23175;-33.706;151.094;2022-11-15T05:03:25;98771.01;;;20.36;37.74
37291;BME280;23175;-33.706;151.094;2022-11-15T05:05:56;98762.85;;;18.76;38.82
37291;BME280;23175;-33.706;151.094;2022-11-15T05:08:27;98758.95;;;20.81;36.27
37291;BME280;23175;-33.706;151.094;2022-11-15T05:10:57;98754.94;;;20.83;36.49
37291;BME280;23175;-33.706;151.094;2022-11-15T05:13:27;98752.91;;;21.67;36.04
37291;BME280;23175;-33.706;151.094;2022-11-15T05:15:57;98751.33;;;21.43;35.97
37291;BME280;23175;-33.706;151.094;2022-11-15T05:18:27;98755.92;;;20.85;36.67
37291;BME280;23175;-33.706;151.094;2022-11-15T05:21:03;98755.61;;;21.28;35.45
37291;BME280;23175;-33.706;151.094;2022-11-15T05:23:33;98762.50;;;19.97;38.18
37291;BME280;23175;-33.706;151.094;2022-11-15T05:26:05;98762.23;;;18.90;39.41
37291;BME280;23175;-33.706;151.094;2022-11-15T05:28:36;98767.84;;;19.91;38.30
37291;BME280;23175;-33.706;151.094;2022-11-15T05:31:09;98774.45;;;20.36;37.86
37291;BME280;23175;-33.706;151.094;2022-11-15T05:33:40;98775.36;;;19.99;38.11
37291;BME280;23175;-33.706;151.094;2022-11-15T05:36:16;98773.90;;;20.72;37.78
37291;BME280;23175;-33.706;151.094;2022-11-15T05:38:49;98774.02;;;20.11;38.46
37291;BME280;23175;-33.706;151.094;2022-11-15T05:41:24;98772.30;;;20.12;37.71
37291;BME280;23175;-33.706;151.094;2022-11-15T05:43:57;98775.27;;;19.01;39.81
37291;BME280;23175;-33.706;151.094;2022-11-15T05:46:28;98778.55;;;19.12;38.84
37291;BME280;23175;-33.706;151.094;2022-11-15T05:48:59;98789.48;;;19.61;38.81
37291;BME280;23175;-33.706;151.094;2022-11-15T05:51:30;98790.23;;;21.38;36.62
37291;BME280;23175;-33.706;151.094;2022-11-15T05:54:01;98784.41;;;21.14;37.29
37291;BME280;23175;-33.706;151.094;2022-11-15T05:56:31;98776.82;;;19.57;39.30
37291;BME280;23175;-33.706;151.094;2022-11-15T05:59:01;98779.85;;;21.01;38.21
37291;BME280;23175;-33.706;151.094;2022-11-15T06:01:32;98782.64;;;18.37;41.41
37291;BME280;23175;-33.706;151.094;2022-11-15T06:04:02;98788.81;;;16.96;44.17
37291;BME280;23175;-33.706;151.094;2022-11-15T06:06:32;98797.67;;;17.38;42.58
37291;BME280;23175;-33.706;151.094;2022-11-15T06:09:02;98800.14;;;19.70;40.75
37291;BME280;23175;-33.706;151.094;2022-11-15T06:11:32;98795.27;;;18.00;41.43
37291;BME280;23175;-33.706;151.094;2022-11-15T06:14:02;98799.85;;;18.06;42.31
37291;BME280;23175;-33.706;151.094;2022-11-15T06:16:32;98801.72;;;17.64;42.81
37291;BME280;23175;-33.706;151.094;2022-11-15T06:19:02;98801.16;;;17.75;42.01
37291;BME280;23175;-33.706;151.094;2022-11-15T06:21:32;98807.91;;;17.18;42.50
37291;BME280;23175;-33.706;151.094;2022-11-15T06:24:02;98813.36;;;20.41;38.65
37291;BME280;23175;-33.706;151.094;2022-11-15T06:26:32;98820.33;;;19.90;37.44
37291;BME280;23175;-33.706;151.094;2022-11-15T06:29:03;98820.97;;;19.59;38.57
37291;BME280;23175;-33.706;151.094;2022-11-15T06:31:34;98821.37;;;20.90;36.96
37291;BME280;23175;-33.706;151.094;2022-11-15T06:34:04;98822.03;;;20.69;37.23
37291;BME280;23175;-33.706;151.094;2022-11-15T06:36:36;98822.47;;;20.39;37.08
37291;BME280;23175;-33.706;151.094;2022-11-15T06:39:06;98827.39;;;19.40;38.30
37291;BME280;23175;-33.706;151.094;2022-11-15T06:41:37;98833.60;;;17.27;40.51
37291;BME280;23175;-33.706;151.094;2022-11-15T06:44:06;98833.17;;;17.72;40.38
37291;BME280;23175;-33.706;151.094;2022-11-15T06:46:36;98841.81;;;20.26;37.80
37291;BME280;23175;-33.706;151.094;2022-11-15T06:49:06;98846.20;;;17.68;42.56
37291;BME280;23175;-33.706;151.094;2022-11-15T06:51:36;98852.25;;;19.11;40.99
37291;BME280;23175;-33.706;151.094;2022-11-15T06:54:07;98860.10;;;17.79;42.98
37291;BME280;23175;-33.706;151.094;2022-11-15T06:56:37;98863.79;;;19.60;40.66
37291;BME280;23175;-33.706;151.094;2022-11-15T06:59:07;98868.82;;;21.08;39.15
37291;BME280;23175;-33.706;151.094;2022-11-15T07:01:37;98870.19;;;20.95;38.98
37291;BME280;23175;-33.706;151.094;2022-11-15T07:04:07;98872.93;;;19.67;40.59
37291;BME280;23175;-33.706;151.094;2022-11-15T07:06:37;98870.13;;;19.67;40.64
37291;BME280;23175;-33.706;151.094;2022-11-15T07:09:07;98868.66;;;18.22;42.86
37291;BME280;23175;-33.706;151.094;2022-11-15T07:11:37;98874.75;;;20.42;39.92
37291;BME280;23175;-33.706;151.094;2022-11-15T07:14:07;98876.57;;;19.70;41.50
37291;BME280;23175;-33.706;151.094;2022-11-15T07:16:38;98880.48;;;18.77;42.33
37291;BME280;23175;-33.706;151.094;2022-11-15T07:19:10;98885.82;;;19.08;41.70
37291;BME280;23175;-33.706;151.094;2022-11-15T07:21:40;98887.25;;;19.96;39.48
37291;BME280;23175;-33.706;151.094;2022-11-15T07:24:10;98890.50;;;19.39;40.82
37291;BME280;23175;-33.706;151.094;2022-11-15T07:26:42;98890.21;;;18.13;42.32
37291;BME280;23175;-33.706;151.094;2022-11-15T07:29:11;98890.90;;;20.29;38.98
37291;BME280;23175;-33.706;151.094;2022-11-15T07:31:41;98896.82;;;20.56;38.55
37291;BME280;23175;-33.706;151.094;2022-11-15T07:34:11;98903.33;;;19.08;40.60
37291;BME280;23175;-33.706;151.094;2022-11-15T07:36:41;98908.86;;;19.55;41.25
37291;BME280;23175;-33.706;151.094;2022-11-15T07:39:11;98908.17;;;18.11;42.81
37291;BME280;23175;-33.706;151.094;2022-11-15T07:41:41;98917.64;;;16.42;45.98
37291;BME280;23175;-33.706;151.094;2022-11-15T07:44:12;98922.50;;;17.53;44.71
37291;BME280;23175;-33.706;151.094;2022-11-15T07:46:41;98932.35;;;18.86;42.62
37291;BME280;23175;-33.706;151.094;2022-11-15T07:49:11;98939.12;;;20.26;40.75
37291;BME280;23175;-33.706;151.094;2022-11-15T07:51:41;98947.32;;;18.94;40.67
37291;BME280;23175;-33.706;151.094;2022-11-15T07:54:12;98949.96;;;18.93;41.29
37291;BME280;23175;-33.706;151.094;2022-11-15T07:56:41;98955.63;;;19.84;40.23
37291;BME280;23175;-33.706;151.094;2022-11-15T07:59:12;98956.43;;;19.19;40.91
37291;BME280;23175;-33.706;151.094;2022-11-15T08:01:42;98962.44;;;18.97;40.69
37291;BME280;23175;-33.706;151.094;2022-11-15T08:04:12;98967.51;;;19.68;39.91
37291;BME280;23175;-33.706;151.094;2022-11-15T08:06:42;98975.66;;;18.12;42.42
37291;BME280;23175;-33.706;151.094;2022-11-15T08:09:12;98976.86;;;18.33;41.70
37291;BME280;23175;-33.706;151.094;2022-11-15T08:11:42;98978.41;;;19.50;40.92
37291;BME280;23175;-33.706;151.094;2022-11-15T08:14:12;98980.60;;;19.95;40.25
37291;BME280;23175;-33.706;151.094;2022-11-15T08:16:43;98988.44;;;18.78;41.39
37291;BME280;23175;-33.706;151.094;2022-11-15T08:19:13;98994.90;;;18.56;41.69
37291;BME280;23175;-33.706;151.094;2022-11-15T08:21:43;98996.36;;;18.90;41.48
37291;BME280;23175;-33.706;151.094;2022-11-15T08:24:13;99003.98;;;19.76;40.77
37291;BME280;23175;-33.706;151.094;2022-11-15T08:26:43;99008.78;;;18.43;42.20
37291;BME280;23175;-33.706;151.094;2022-11-15T08:29:13;99014.60;;;19.53;41.61
37291;BME280;23175;-33.706;151.094;2022-11-15T08:31:43;99019.87;;;20.27;40.08
37291;BME280;23175;-33.706;151.094;2022-11-15T08:34:13;99028.38;;;20.54;39.71
37291;BME280;23175;-33.706;151.094;2022-11-15T08:36:44;99034.58;;;18.52;42.42
37291;BME280;23175;-33.706;151.094;2022-11-15T08:39:13;99041.35;;;19.73;41.45
37291;BME280;23175;-33.706;151.094;2022-11-15T08:41:44;99043.35;;;19.88;40.63
37291;BME280;23175;-33.706;151.094;2022-11-15T08:44:13;99047.04;;;19.40;41.94
37291;BME280;23175;-33.706;151.094;2022-11-15T08:46:46;99051.33;;;19.99;41.15
37291;BME280;23175;-33.706;151.094;2022-11-15T08:49:16;99054.88;;;18.59;41.92
37291;BME280;23175;-33.706;151.094;2022-11-15T08:51:47;99060.46;;;17.99;42.76
37291;BME280;23175;-33.706;151.094;2022-11-15T08:54:17;99064.47;;;19.04;42.03
37291;BME280;23175;-33.706;151.094;2022-11-15T08:56:47;99065.65;;;20.39;41.40
37291;BME280;23175;-33.706;151.094;2022-11-15T08:59:17;99068.94;;;18.95;41.80
37291;BME280;23175;-33.706;151.094;2022-11-15T09:01:47;99073.58;;;19.75;42.47
37291;BME280;23175;-33.706;151.094;2022-11-15T09:04:17;99073.37;;;20.08;40.60
37291;BME280;23175;-33.706;151.094;2022-11-15T09:06:47;99073.69;;;20.94;40.47
37291;BME280;23175;-33.706;151.094;2022-11-15T09:09:17;99079.96;;;19.02;42.15
37291;BME280;23175;-33.706;151.094;2022-11-15T09:11:47;99082.85;;;19.29;42.78
37291;BME280;23175;-33.706;151.094;2022-11-15T09:14:18;99083.61;;;18.01;43.67
37291;BME280;23175;-33.706;151.094;2022-11-15T09:16:48;99087.67;;;20.37;41.29
37291;BME280;23175;-33.706;151.094;2022-11-15T09:19:19;99090.82;;;20.57;40.09
37291;BME280;23175;-33.706;151.094;2022-11-15T09:21:49;99094.25;;;21.36;39.90
37291;BME280;23175;-33.706;151.094;2022-11-15T09:24:19;99097.61;;;18.61;42.67
37291;BME280;23175;-33.706;151.094;2022-11-15T09:26:51;99103.47;;;19.85;41.60
37291;BME280;23175;-33.706;151.094;2022-11-15T09:29:21;99106.91;;;20.12;39.83
37291;BME280;23175;-33.706;151.094;2022-11-15T09:31:53;99111.84;;;19.88;41.05
37291;BME280;23175;-33.706;151.094;2022-11-15T09:34:23;99112.43;;;19.02;41.53
37291;BME280;23175;-33.706;151.094;2022-11-15T09:36:53;99110.11;;;19.99;41.99
37291;BME280;23175;-33.706;151.094;2022-11-15T09:39:23;99111.08;;;19.90;40.71
37291;BME280;23175;-33.706;151.094;2022-11-15T09:42:11;99117.32;;;20.80;40.13
37291;BME280;23175;-33.706;151.094;2022-11-15T09:44:59;99121.81;;;20.07;41.50
37291;BME280;23175;-33.706;151.094;2022-11-15T09:47:48;99121.41;;;21.01;39.63
37291;BME280;23175;-33.706;151.094;2022-11-15T09:50:32;99119.91;;;20.34;38.72
37291;BME280;23175;-33.706;151.094;2022-11-15T09:53:08;99122.26;;;21.09;39.07
37291;BME280;23175;-33.706;151.094;2022-11-15T09:55:47;99126.29;;;20.39;39.90
37291;BME280;23175;-33.706;151.094;2022-11-15T09:58:28;99132.56;;;20.28;38.52
37291;BME280;23175;-33.706;151.094;2022-11-15T10:01:05;99140.57;;;21.63;38.25
37291;BME280;23175;-33.706;151.094;2022-11-15T10:03:38;99143.79;;;21.72;38.11
37291;BME280;23175;-33.706;151.094;2022-11-15T10:06:18;99144.91;;;21.16;38.98
37291;BME280;23175;-33.706;151.094;2022-11-15T10:08:57;99148.07;;;21.33;38.44
37291;BME280;23175;-33.706;151.094;2022-11-15T10:11:30;99150.90;;;20.98;38.63
37291;BME280;23175;-33.706;151.094;2022-11-15T10:14:02;99152.51;;;21.32;37.84
37291;BME280;23175;-33.706;151.094;2022-11-15T10:16:46;99158.07;;;21.27;38.67
37291;BME280;23175;-33.706;151.094;2022-11-15T10:19:24;99160.62;;;20.37;37.83
37291;BME280;23175;-33.706;151.094;2022-11-15T10:22:04;99161.93;;;21.42;38.07
37291;BME280;23175;-33.706;151.094;2022-11-15T10:24:42;99163.87;;;21.62;38.23
37291;BME280;23175;-33.706;151.094;2022-11-15T10:27:14;99167.03;;;21.64;38.39
37291;BME280;23175;-33.706;151.094;2022-11-15T10:29:47;99167.97;;;21.50;38.49
37291;BME280;23175;-33.706;151.094;2022-11-15T10:32:19;99168.41;;;17.47;42.89
37291;BME280;23175;-33.706;151.094;2022-11-15T10:34:51;99166.85;;;20.64;39.50
37291;BME280;23175;-33.706;151.094;2022-11-15T10:37:30;99165.23;;;20.01;39.14
37291;BME280;23175;-33.706;151.094;2022-11-15T10:40:17;99169.96;;;19.97;41.18
37291;BME280;23175;-33.706;151.094;2022-11-15T10:42:48;99176.38;;;20.72;39.59
37291;BME280;23175;-33.706;151.094;2022-11-15T10:45:33;99180.46;;;20.75;39.32
37291;BME280;23175;-33.706;151.094;2022-11-15T10:48:35;99183.75;;;20.99;39.48
37291;BME280;23175;-33.706;151.094;2022-11-15T10:51:22;99186.99;;;20.69;39.46
37291;BME280;23175;-33.706;151.094;2022-11-15T10:53:53;99192.91;;;21.06;39.36
37291;BME280;23175;-33.706;151.094;2022-11-15T10:56:26;99193.60;;;20.68;39.47
37291;BME280;23175;-33.706;151.094;2022-11-15T10:58:57;99194.73;;;21.12;39.18
37291;BME280;23175;-33.706;151.094;2022-11-15T11:01:28;99191.92;;;20.72;39.37
37291;BME280;23175;-33.706;151.094;2022-11-15T11:04:03;99191.85;;;21.32;39.20
37291;BME280;23175;-33.706;151.094;2022-11-15T11:06:48;99190.13;;;20.88;39.47
37291;BME280;23175;-33.706;151.094;2022-11-15T11:09:30;99192.49;;;21.44;39.45
37291;BME280;23175;-33.706;151.094;2022-11-15T11:12:02;99191.10;;;20.76;39.43
37291;BME280;23175;-33.706;151.094;2022-11-15T11:14:34;99199.24;;;20.64;39.36
37291;BME280;23175;-33.706;151.094;2022-11-15T11:17:10;99204.36;;;20.96;39.97
37291;BME280;23175;-33.706;151.094;2022-11-15T11:19:51;99206.16;;;20.21;40.50
37291;BME280;23175;-33.706;151.094;2022-11-15T11:22:34;99213.87;;;17.17;43.93
37291;BME280;23175;-33.706;151.094;2022-11-15T11:25:16;99212.88;;;20.25;40.53
37291;BME280;23175;-33.706;151.094;2022-11-15T11:27:59;99214.89;;;20.34;40.37
37291;BME280;23175;-33.706;151.094;2022-11-15T11:30:40;99213.69;;;20.89;39.89
37291;BME280;23175;-33.706;151.094;2022-11-15T11:33:18;99216.72;;;20.22;40.42
37291;BME280;23175;-33.706;151.094;2022-11-15T11:36:05;99215.00;;;20.28;40.46
37291;BME280;23175;-33.706;151.094;2022-11-15T11:38:47;99219.84;;;19.11;42.47
37291;BME280;23175;-33.706;151.094;2022-11-15T11:41:37;99218.10;;;15.01;45.79
37291;BME280;23175;-33.706;151.094;2022-11-15T11:44:22;99217.19;;;19.14;39.63
37291;BME280;23175;-33.706;151.094;2022-11-15T11:46:58;99220.43;;;18.08;39.99
37291;BME280;23175;-33.706;151.094;2022-11-15T11:49:34;99222.22;;;16.76;40.26
37291;BME280;23175;-33.706;151.094;2022-11-15T11:52:13;99225.37;;;18.01;38.64
37291;BME280;23175;-33.706;151.094;2022-11-15T11:54:53;99223.30;;;16.83;39.30
37291;BME280;23175;-33.706;151.094;2022-11-15T11:57:34;99228.19;;;12.68;43.44
37291;BME280;23175;-33.706;151.094;2022-11-15T12:00:17;99222.75;;;15.82;39.05
37291;BME280;23175;-33.706;151.094;2022-11-15T12:02:53;99226.35;;;16.55;36.00
37291;BME280;23175;-33.706;151.094;2022-11-15T12:05:32;99224.50;;;16.53;35.26
37291;BME280;23175;-33.706;151.094;2022-11-15T12:08:20;99230.58;;;17.75;33.22
37291;BME280;23175;-33.706;151.094;2022-11-15T12:10:57;99236.27;;;17.19;33.42
37291;BME280;23175;-33.706;151.094;2022-11-15T12:13:32;99238.27;;;14.69;35.85
37291;BME280;23175;-33.706;151.094;2022-11-15T12:16:07;99236.54;;;18.32;30.17
37291;BME280;23175;-33.706;151.094;2022-11-15T12:18:43;99238.71;;;16.84;31.58
37291;BME280;23175;-33.706;151.094;2022-11-15T12:21:19;99246.20;;;16.05;32.04
37291;BME280;23175;-33.706;151.094;2022-11-15T12:23:54;99249.18;;;16.57;32.28
37291;BME280;23175;-33.706;151.094;2022-11-15T12:26:28;99245.08;;;17.76;29.68
37291;BME280;23175;-33.706;151.094;2022-11-15T12:29:03;99245.28;;;16.82;31.51
37291;BME280;23175;-33.706;151.094;2022-11-15T12:31:40;99245.23;;;13.53;33.24
37291;BME280;23175;-33.706;151.094;2022-11-15T12:34:36;99243.55;;;17.61;30.53
37291;BME280;23175;-33.706;151.094;2022-11-15T12:37:48;99242.13;;;18.43;29.05
37291;BME280;23175;-33.706;151.094;2022-11-15T12:40:33;99236.93;;;17.32;28.67
37291;BME280;23175;-33.706;151.094;2022-11-15T12:43:32;99236.90;;;17.28;29.54
37291;BME280;23175;-33.706;151.094;2022-11-15T12:46:10;99237.17;;;17.58;29.05
37291;BME280;23175;-33.706;151.094;2022-11-15T12:48:53;99239.26;;;16.99;29.67
37291;BME280;23175;-33.706;151.094;2022-11-15T12:52:12;99237.88;;;15.81;29.66
37291;BME280;23175;-33.706;151.094;2022-11-15T12:55:01;99241.04;;;16.13;30.19
37291;BME280;23175;-33.706;151.094;2022-11-15T12:57:41;99240.31;;;16.04;30.03
37291;BME280;23175;-33.706;151.094;2022-11-15T13:00:39;99240.31;;;16.02;30.56
37291;BME280;23175;-33.706;151.094;2022-11-15T13:04:14;99241.64;;;18.41;28.04
37291;BME280;23175;-33.706;151.094;2022-11-15T13:06:52;99242.19;;;18.14;27.57